Latest Weather Observations for Tuggeranong

IDN60801

Issued at 2:52 pm EST Thursday 28 May 2020 (issued every 10 minutes, with the page automatically refreshed every 10 minutes)

About weather observations | Map of weather stations | Latest weather observations for NSW | Other Formats
Station Details ID: 070339 Name: TUGGERANONG (ISABELLA PLAINS) AWS Lat: -35.42 Lon: 149.09 Height: 586.7 m
Data from the previous 72 hours. | See also: Recent months at Tuggeranong
Date/Time
EST
Temp
°C
App
Temp
°C
Dew
Point
°C
Rel
Hum
%
Delta-T
°C
Wind Press
QNH
hPa
Press
MSL
hPa
Rain since
9am
mm
Dir  Spd
km/h
Gust
km/h
Spd
kts
Gust
kts
28/02:30pm 14.5 12.1 7.1 61 3.7 NNW 9 11 5 6 1020.7 1020.9 0.0
28/02:00pm 15.0 12.3 7.3 60 3.9 NNW 11 17 6 9 1020.8 1021.0 0.0
28/01:30pm 15.3 12.9 7.1 58 4.2 NNW 9 19 5 10 1020.9 1021.1 0.0
28/01:00pm 14.7 12.4 7.3 61 3.7 NNW 9 13 5 7 1021.2 1021.3 0.0
28/12:30pm 12.7 11.5 8.2 74 2.3 E 4 9 2 5 1021.5 1021.7 0.0
28/12:00pm 12.1 10.4 8.4 78 1.9 ENE 7 13 4 7 1022.0 1022.2 0.0
28/11:30am 10.9 10.2 8.5 85 1.2 NNW 2 11 1 6 1022.4 1022.6 0.0
28/11:00am 8.8 7.3 8.4 97 0.2 NNW 6 9 3 5 1022.9 1023.1 0.0
28/10:30am 7.6 6.7 7.6 100 0.0 WNW 2 7 1 4 1023.1 1023.3 0.0
28/10:00am 7.2 6.2 7.2 100 0.0 SSW 2 7 1 4 1023.3 1023.5 0.0
28/09:30am 6.9 6.2 6.9 100 0.0 CALM 0 0 0 0 1023.3 1023.5 0.0
28/09:00am 5.9 4.6 5.9 100 0.0 WSW 2 7 1 4 1023.3 1023.5 0.0
28/08:30am 5.4 4.4 5.4 100 0.0 CALM 0 0 0 0 1023.1 1023.3 0.0
28/08:00am 4.7 3.5 4.7 100 0.0 CALM 0 0 0 0 1022.7 1022.9 0.0
28/07:30am 4.0 2.7 4.0 100 0.0 CALM 0 0 0 0 1022.5 1022.7 0.0
28/07:00am 3.6 1.1 3.6 100 0.0 ESE 6 7 3 4 1022.0 1022.2 0.0
28/06:30am 3.0 1.5 2.9 99 0.0 CALM 0 2 0 1 1021.8 1022.0 0.0
28/06:00am 2.8 1.2 2.7 99 0.0 CALM 0 0 0 0 1021.4 1021.6 0.0
28/05:30am 3.1 1.6 3.0 99 0.0 CALM 0 0 0 0 1021.5 1021.7 0.0
28/05:00am 3.9 2.5 3.8 99 0.0 CALM 0 0 0 0 1021.3 1021.4 0.0
28/04:30am 4.9 3.8 4.9 100 0.0 CALM 0 0 0 0 1021.1 1021.2 0.0
28/04:00am 4.8 3.6 4.7 99 0.0 CALM 0 0 0 0 1021.1 1021.2 0.0
28/03:30am 5.3 4.2 5.3 100 0.0 CALM 0 0 0 0 1021.1 1021.2 0.0
28/03:00am 5.4 4.0 5.3 99 0.0 W 2 6 1 3 1021.2 1021.3 0.0
28/02:30am 5.5 4.5 5.4 99 0.0 CALM 0 0 0 0 1021.1 1021.2 0.0
28/02:00am 5.8 4.8 5.7 99 0.0 CALM 0 0 0 0 1021.3 1021.4 0.0
28/01:30am 5.9 5.0 5.9 100 0.0 CALM 0 6 0 3 1021.3 1021.4 0.0
28/01:00am 5.3 4.2 5.3 100 0.0 CALM 0 0 0 0 1021.3 1021.4 0.0
28/12:30am 4.9 3.7 4.8 99 0.0 CALM 0 0 0 0 1021.2 1021.3 0.0
28/12:00am 4.4 3.1 4.3 99 0.0 CALM 0 0 0 0 1021.2 1021.3 0.0
 
Date/Time
EST
Temp
°C
App
Temp
°C
Dew
Point
°C
Rel
Hum
%
Delta-T
°C
Wind Press
QNH
hPa
Press
MSL
hPa
Rain since
9am
mm
Dir  Spd
km/h
Gust
km/h
Spd
kts
Gust
kts
27/11:30pm 5.4 4.3 5.3 99 0.0 CALM 0 4 0 2 1021.2 1021.3 0.0
27/11:00pm 6.1 4.0 6.0 99 0.0 WSW 6 7 3 4 1020.9 1021.1 0.0
27/10:30pm 6.1 4.8 6.0 99 0.0 NE 2 7 1 4 1020.9 1021.1 0.0
27/10:00pm 6.1 5.2 6.0 99 0.0 CALM 0 0 0 0 1021.2 1021.3 0.0
27/09:30pm 6.0 5.1 5.9 99 0.0 CALM 0 0 0 0 1021.3 1021.4 0.0
27/09:00pm 6.7 4.8 6.6 99 0.0 E 6 7 3 4 1021.2 1021.3 0.0
27/08:30pm 6.9 5.0 6.8 99 0.0 ENE 6 7 3 4 1021.5 1021.7 0.0
27/08:00pm 7.4 5.4 7.3 99 0.0 E 7 7 4 4 1021.5 1021.7 0.0
27/07:30pm 7.7 7.0 6.8 94 0.4 CALM 0 0 0 0 1021.4 1021.6 0.0
27/07:00pm 8.5 7.9 7.3 92 0.6 CALM 0 0 0 0 1021.1 1021.2 0.0
27/06:30pm 9.2 8.6 7.2 87 1.0 CALM 0 0 0 0 1020.6 1020.8 0.0
27/06:00pm 10.1 9.6 7.7 85 1.2 CALM 0 0 0 0 1020.5 1020.7 0.0
27/05:30pm 10.7 10.1 7.6 81 1.5 CALM 0 0 0 0 1020.4 1020.6 0.0
27/05:00pm 11.3 10.6 7.0 75 2.1 CALM 0 0 0 0 1020.4 1020.6 0.0
27/04:30pm 12.8 10.9 7.5 70 2.7 N 7 11 4 6 1020.2 1020.4 0.0
27/04:00pm 13.5 11.2 7.5 67 3.0 N 9 13 5 7 1020.2 1020.4 0.0
27/03:30pm 13.8 11.5 7.6 66 3.1 NNW 9 13 5 7 1020.1 1020.3 0.0
27/03:00pm 13.5 11.2 7.3 66 3.1 N 9 13 5 7 1020.1 1020.3 0.0
27/02:30pm 13.9 11.5 7.2 64 3.4 N 9 17 5 9 1020.2 1020.4 0.0
27/02:00pm 14.1 12.0 6.7 61 3.7 NNW 7 13 4 7 1020.4 1020.6 0.0
27/01:30pm 13.8 11.3 6.4 61 3.7 N 9 13 5 7 1020.8 1021.0 0.0
27/01:00pm 13.7 10.8 6.3 61 3.6 N 11 15 6 8 1021.2 1021.3 0.0
27/12:30pm 13.8 11.3 6.7 62 3.5 NW 9 13 5 7 1021.7 1021.9 0.0
27/12:00pm 12.5 10.6 6.5 67 2.9 WNW 6 9 3 5 1022.2 1022.4 0.0
27/11:30am 11.6 10.2 5.7 67 2.8 SE 2 6 1 3 1022.6 1022.8 0.0
27/11:00am 11.0 8.7 5.5 69 2.6 W 7 9 4 5 1023.5 1023.7 0.0
27/10:30am 10.8 8.7 5.8 71 2.4 WSW 6 9 3 5 1023.7 1023.9 0.0
27/10:00am 10.3 8.5 5.5 72 2.3 N 4 7 2 4 1023.8 1024.0 0.0
27/09:30am 8.3 6.5 5.2 81 1.4 WNW 4 7 2 4 1024.1 1024.3 0.0
27/09:00am 6.7 5.7 5.5 92 0.5 CALM 0 0 0 0 1023.9 1024.1 0.0
27/08:30am 5.3 4.2 5.2 99 0.0 CALM 0 0 0 0 1023.8 1024.0 0.0
27/08:00am 3.8 2.4 3.7 99 0.0 CALM 0 0 0 0 1023.8 1024.0 0.0
27/07:30am 3.3 1.8 3.2 99 0.0 CALM 0 0 0 0 1023.7 1023.9 0.0
27/07:00am 3.5 2.1 3.4 99 0.0 CALM 0 0 0 0 1023.4 1023.6 0.0
27/06:30am 3.9 2.5 3.8 99 0.0 CALM 0 0 0 0 1023.6 1023.8 0.0
27/06:00am 3.4 2.0 3.3 99 0.0 CALM 0 0 0 0 1023.3 1023.5 0.0
27/05:30am 4.2 2.5 4.1 99 0.0 E 2 6 1 3 1023.3 1023.5 0.0
27/05:00am 4.3 3.0 3.9 97 0.2 CALM 0 0 0 0 1023.4 1023.6 0.0
27/04:30am 5.4 3.5 4.7 95 0.3 NE 4 9 2 5 1023.3 1023.5 0.0
27/04:00am 6.0 4.7 4.3 89 0.8 CALM 0 0 0 0 1023.4 1023.6 0.0
27/03:30am 7.6 6.5 5.1 84 1.1 CALM 0 0 0 0 1023.4 1023.6 0.0
27/03:00am 8.3 7.3 5.8 84 1.2 CALM 0 0 0 0 1023.7 1023.9 0.0
27/02:30am 9.0 8.1 5.9 81 1.5 CALM 0 7 0 4 1023.9 1024.1 0.0
27/02:00am 9.3 8.4 5.9 79 1.6 CALM 0 0 0 0 1024.2 1024.4 0.0
27/01:30am 9.6 8.7 6.0 78 1.7 CALM 0 0 0 0 1024.3 1024.6 0.0
27/01:00am 9.5 8.6 5.9 78 1.7 CALM 0 0 0 0 1024.6 1024.9 0.0
27/12:30am 9.8 8.1 5.8 76 1.9 WSW 4 7 2 4 1024.9 1025.1 0.0
27/12:00am 9.6 8.6 5.6 76 1.9 CALM 0 0 0 0 1025.0 1025.2 0.0
 
Date/Time
EST
Temp
°C
App
Temp
°C
Dew
Point
°C
Rel
Hum
%
Delta-T
°C
Wind Press
QNH
hPa
Press
MSL
hPa
Rain since
9am
mm
Dir  Spd
km/h
Gust
km/h
Spd
kts
Gust
kts
26/11:30pm 10.0 9.0 5.6 74 2.1 CALM 0 0 0 0 1025.1 1025.3 0.0
26/11:00pm 10.6 8.5 5.6 71 2.4 SE 6 9 3 5 1025.3 1025.5 0.0
26/10:30pm 10.9 7.8 5.4 69 2.6 SSE 11 13 6 7 1025.3 1025.5 0.0
26/10:00pm 10.8 7.8 6.0 72 2.3 SE 11 17 6 9 1025.6 1025.8 0.0
26/09:30pm 10.9 8.7 6.3 73 2.2 NE 7 9 4 5 1025.5 1025.7 0.0
26/09:00pm 11.4 8.8 6.1 70 2.6 SE 9 13 5 7 1025.2 1025.4 0.0
26/08:30pm 10.9 7.5 6.1 72 2.3 SSE 13 17 7 9 1025.2 1025.4 0.0
26/08:00pm 11.0 8.5 6.7 75 2.1 SE 9 11 5 6 1025.1 1025.3 0.0
26/07:30pm 11.1 9.0 6.6 74 2.2 ESE 7 11 4 6 1024.9 1025.1 0.0
26/07:00pm 10.7 8.8 6.5 75 2.0 E 6 7 3 4 1025.0 1025.2 0.0
26/06:30pm 11.2 8.6 6.1 71 2.5 SE 9 15 5 8 1024.5 1024.8 0.0
26/06:00pm 11.8 8.5 6.3 69 2.7 E 13 20 7 11 1024.5 1024.8 0.0
26/05:30pm 12.1 8.9 6.8 70 2.6 E 13 17 7 9 1024.1 1024.3 0.0
26/05:00pm 12.7 10.2 6.5 66 3.0 E 9 15 5 8 1024.0 1024.2 0.0
26/04:30pm 13.4 10.2 5.3 58 3.9 SE 11 17 6 9 1023.8 1024.0 0.0
26/04:00pm 13.4 11.2 6.0 61 3.6 ESE 7 13 4 7 1023.7 1023.9 0.0
26/03:30pm 13.5 10.0 7.1 65 3.2 ESE 15 22 8 12 1023.6 1023.8 0.0
26/03:00pm 13.6 10.6 7.8 68 2.9 E 13 19 7 10 1023.4 1023.6 0.0
26/02:30pm 13.9 11.2 7.4 65 3.3 S 11 20 6 11 1023.5 1023.7 0.0
26/02:00pm 14.3 10.9 7.8 65 3.3 SE 15 20 8 11 1023.6 1023.8 0.0
26/01:30pm 13.6 9.2 7.4 66 3.1 S 20 26 11 14 1023.6 1023.8 0.0
26/01:00pm 13.3 9.1 7.3 67 3.0 S 19 28 10 15 1024.0 1024.2 0.0
26/12:30pm 12.9 8.0 7.1 68 2.9 S 22 32 12 17 1024.8 1025.0 0.0
26/12:00pm 12.9 8.0 7.1 68 2.9 S 22 30 12 16 1025.0 1025.2 0.0
26/11:30am 13.0 8.7 7.0 67 3.0 S 19 28 10 15 1025.6 1025.8 0.0
26/11:00am 12.7 8.8 7.0 68 2.8 S 17 26 9 14 1026.0 1026.3 0.0
26/10:30am 12.8 8.5 7.0 68 2.9 SSE 19 30 10 16 1026.0 1026.3 0.0
26/10:00am 12.0 7.9 6.3 68 2.8 S 17 28 9 15 1026.0 1026.3 0.0
26/09:30am 11.5 7.1 6.6 72 2.4 S 19 28 10 15 1026.0 1026.3 0.0
26/09:00am 10.6 6.0 6.4 75 2.0 S 20 28 11 15 1025.9 1026.2 0.0
26/08:30am 10.4 5.9 6.2 75 2.0 S 19 32 10 17 1025.5 1025.7 0.0
26/08:00am 9.7 5.2 5.9 77 1.8 S 19 32 10 17 1025.3 1025.5 0.0
26/07:30am 9.1 4.9 5.7 79 1.6 S 17 28 9 15 1025.0 1025.2 0.0
26/07:00am 9.0 4.4 5.4 78 1.7 SSE 19 26 10 14 1024.5 1024.8 0.0
26/06:30am 8.9 4.6 5.3 78 1.7 SSE 17 26 9 14 1024.3 1024.6 0.0
26/06:00am 8.5 3.8 5.1 79 1.6 SSE 19 28 10 15 1024.1 1024.3 0.0
26/05:30am 8.7 4.7 5.1 78 1.7 SSE 15 24 8 13 1024.1 1024.3 0.0
26/05:00am 8.7 3.8 5.3 79 1.6 SSE 20 30 11 16 1023.9 1024.1 0.0
26/04:30am 8.7 3.8 5.3 79 1.6 SSE 20 32 11 17 1024.0 1024.2 0.0
26/04:00am 8.6 3.7 5.0 78 1.7 SSE 20 32 11 17 1024.1 1024.3 0.0
26/03:30am 8.5 3.5 4.7 77 1.7 SSE 20 35 11 19 1024.1 1024.3 0.0
26/03:00am 8.5 3.4 4.1 74 2.0 S 20 35 11 19 1024.2 1024.4 0.0
26/02:30am 8.8 3.7 4.2 73 2.1 S 20 30 11 16 1024.5 1024.8 0.0
26/02:00am 8.8 3.3 4.0 72 2.2 S 22 35 12 19 1024.4 1024.7 0.0
26/01:30am 9.0 4.0 3.8 70 2.3 S 19 32 10 17 1024.4 1024.7 0.0
26/01:00am 9.0 4.4 3.6 69 2.4 S 17 26 9 14 1024.4 1024.7 0.0
26/12:30am 8.6 5.0 3.0 68 2.5 SSE 11 20 6 11 1024.5 1024.8 0.0
26/12:00am 8.7 4.7 3.1 68 2.5 SSW 13 22 7 12 1024.4 1024.7 0.0
 
Date/Time
EST
Temp
°C
App
Temp
°C
Dew
Point
°C
Rel
Hum
%
Delta-T
°C
Wind Press
QNH
hPa
Press
MSL
hPa
Rain since
9am
mm
Dir  Spd
km/h
Gust
km/h
Spd
kts
Gust
kts
25/11:30pm 8.7 4.0 2.9 67 2.6 SSW 17 30 9 16 1024.4 1024.7 0.0
25/11:00pm 9.3 4.2 3.1 65 2.7 S 19 28 10 15 1024.5 1024.8 0.0
25/10:30pm 9.4 4.7 3.4 66 2.7 S 17 32 9 17 1024.4 1024.7 0.0
25/10:00pm 9.5 5.7 3.7 67 2.6 S 13 30 7 16 1024.4 1024.7 0.0
25/09:30pm 9.7 4.9 4.5 70 2.4 S 19 35 10 19 1024.5 1024.8 0.0
25/09:00pm 9.7 4.7 4.5 70 2.4 S 20 33 11 18 1024.3 1024.6 0.0
25/08:30pm 9.8 4.8 4.6 70 2.4 SSE 20 35 11 19 1024.0 1024.2 0.0
25/08:00pm 10.0 5.6 4.6 69 2.5 SSE 17 26 9 14 1023.5 1023.7 0.0
25/07:30pm 10.4 6.5 5.4 71 2.4 SSE 15 26 8 14 1023.2 1023.4 0.0
25/07:00pm 10.5 5.9 5.7 72 2.3 SSE 19 30 10 16 1023.0 1023.2 0.0
25/06:30pm 10.4 5.8 5.8 73 2.2 SSE 19 30 10 16 1022.9 1023.1 0.0
25/06:00pm 10.5 5.4 5.9 73 2.2 SSE 22 35 12 19 1022.3 1022.5 0.0
25/05:30pm 10.8 5.3 6.0 72 2.3 S 24 39 13 21 1021.8 1022.0 0.0
25/05:00pm 11.1 5.6 5.8 70 2.5 S 24 37 13 20 1021.5 1021.7 0.0
25/04:30pm 11.3 6.7 5.8 69 2.6 SSE 19 28 10 15 1021.5 1021.7 0.0
25/04:00pm 12.0 6.9 5.9 66 2.9 S 22 35 12 19 1021.6 1021.8 0.0
25/03:30pm 11.7 5.4 5.8 67 2.8 S 28 44 15 24 1021.5 1021.7 0.0
25/03:00pm 12.0 7.2 5.6 65 3.1 SSE 20 39 11 21 1021.5 1021.7 0.0

Other formats

Comma delimited format used in spreadsheet applications
http://www.bom.gov.au/fwo/IDN60801/IDN60801.94925.axf

JavaScript Object Notation format (JSON) in row-major order
http://www.bom.gov.au/fwo/IDN60801/IDN60801.94925.json

Data quality

Most of these data are generated automatically and are frequently updated. Quality checks on data are not normally performed. It is possible for incorrect values to appear. Refer to information at About Latest Weather Observations and please check the disclaimer before using these data.